sensor_id;sensor_type;location;lat;lon;timestamp;P1;durP1;ratioP1;P2;durP2;ratioP2
21543;SDS011;10933;50.754;11.508;2023-11-19T00:00:26;1.60;;;1.50;;
21543;SDS011;10933;50.754;11.508;2023-11-19T00:02:52;1.50;;;1.40;;
21543;SDS011;10933;50.754;11.508;2023-11-19T00:05:18;1.30;;;1.17;;
21543;SDS011;10933;50.754;11.508;2023-11-19T00:07:44;1.20;;;1.10;;
21543;SDS011;10933;50.754;11.508;2023-11-19T00:10:15;1.20;;;1.13;;
21543;SDS011;10933;50.754;11.508;2023-11-19T00:12:44;1.10;;;1.10;;
21543;SDS011;10933;50.754;11.508;2023-11-19T00:15:13;1.33;;;1.23;;
21543;SDS011;10933;50.754;11.508;2023-11-19T00:17:40;1.20;;;1.10;;
21543;SDS011;10933;50.754;11.508;2023-11-19T00:20:17;1.67;;;1.57;;
21543;SDS011;10933;50.754;11.508;2023-11-19T00:22:44;0.80;;;0.80;;
21543;SDS011;10933;50.754;11.508;2023-11-19T00:25:16;0.80;;;0.80;;
21543;SDS011;10933;50.754;11.508;2023-11-19T00:27:43;0.77;;;0.70;;
21543;SDS011;10933;50.754;11.508;2023-11-19T00:30:12;0.77;;;0.77;;
21543;SDS011;10933;50.754;11.508;2023-11-19T00:32:39;0.60;;;0.60;;
21543;SDS011;10933;50.754;11.508;2023-11-19T00:35:06;0.60;;;0.60;;
21543;SDS011;10933;50.754;11.508;2023-11-19T00:37:32;0.50;;;0.50;;
21543;SDS011;10933;50.754;11.508;2023-11-19T00:39:59;0.50;;;0.50;;
21543;SDS011;10933;50.754;11.508;2023-11-19T00:42:24;0.53;;;0.53;;
21543;SDS011;10933;50.754;11.508;2023-11-19T00:44:51;0.40;;;0.40;;
21543;SDS011;10933;50.754;11.508;2023-11-19T00:47:17;0.40;;;0.40;;
21543;SDS011;10933;50.754;11.508;2023-11-19T00:49:45;0.40;;;0.40;;
21543;SDS011;10933;50.754;11.508;2023-11-19T00:52:15;0.40;;;0.40;;
21543;SDS011;10933;50.754;11.508;2023-11-19T00:54:42;0.50;;;0.50;;
21543;SDS011;10933;50.754;11.508;2023-11-19T00:57:08;0.50;;;0.50;;
21543;SDS011;10933;50.754;11.508;2023-11-19T00:59:34;0.40;;;0.40;;
21543;SDS011;10933;50.754;11.508;2023-11-19T01:02:00;0.33;;;0.33;;
21543;SDS011;10933;50.754;11.508;2023-11-19T01:04:29;0.30;;;0.30;;
21543;SDS011;10933;50.754;11.508;2023-11-19T01:06:58;0.50;;;0.40;;
21543;SDS011;10933;50.754;11.508;2023-11-19T01:09:24;0.40;;;0.40;;
21543;SDS011;10933;50.754;11.508;2023-11-19T01:11:51;0.47;;;0.47;;
21543;SDS011;10933;50.754;11.508;2023-11-19T01:14:18;0.73;;;0.53;;
21543;SDS011;10933;50.754;11.508;2023-11-19T01:16:44;0.40;;;0.40;;
21543;SDS011;10933;50.754;11.508;2023-11-19T01:19:10;0.57;;;0.40;;
21543;SDS011;10933;50.754;11.508;2023-11-19T01:21:36;4.00;;;0.50;;
21543;SDS011;10933;50.754;11.508;2023-11-19T01:24:02;0.77;;;0.60;;
21543;SDS011;10933;50.754;11.508;2023-11-19T01:26:31;0.40;;;0.40;;
21543;SDS011;10933;50.754;11.508;2023-11-19T01:28:57;0.40;;;0.40;;
21543;SDS011;10933;50.754;11.508;2023-11-19T01:31:22;1.03;;;0.50;;
21543;SDS011;10933;50.754;11.508;2023-11-19T01:33:48;0.33;;;0.33;;
21543;SDS011;10933;50.754;11.508;2023-11-19T01:36:14;0.47;;;0.43;;
21543;SDS011;10933;50.754;11.508;2023-11-19T01:38:40;0.40;;;0.40;;
21543;SDS011;10933;50.754;11.508;2023-11-19T01:41:06;0.60;;;0.60;;
21543;SDS011;10933;50.754;11.508;2023-11-19T01:43:32;11.40;;;7.07;;
21543;SDS011;10933;50.754;11.508;2023-11-19T01:46:00;0.90;;;0.90;;
21543;SDS011;10933;50.754;11.508;2023-11-19T01:48:28;2.40;;;2.20;;
21543;SDS011;10933;50.754;11.508;2023-11-19T01:50:56;1.30;;;1.20;;
21543;SDS011;10933;50.754;11.508;2023-11-19T01:53:22;0.50;;;0.50;;
21543;SDS011;10933;50.754;11.508;2023-11-19T01:55:49;0.73;;;0.73;;
21543;SDS011;10933;50.754;11.508;2023-11-19T01:58:15;0.50;;;0.47;;
21543;SDS011;10933;50.754;11.508;2023-11-19T02:00:42;1.17;;;0.90;;
21543;SDS011;10933;50.754;11.508;2023-11-19T02:03:10;0.50;;;0.50;;
21543;SDS011;10933;50.754;11.508;2023-11-19T02:05:37;0.60;;;0.60;;
21543;SDS011;10933;50.754;11.508;2023-11-19T02:08:04;1.63;;;1.53;;
21543;SDS011;10933;50.754;11.508;2023-11-19T02:10:30;0.87;;;0.87;;
21543;SDS011;10933;50.754;11.508;2023-11-19T02:12:57;2.40;;;1.40;;
21543;SDS011;10933;50.754;11.508;2023-11-19T02:15:24;1.13;;;1.03;;
21543;SDS011;10933;50.754;11.508;2023-11-19T02:17:52;0.60;;;0.60;;
21543;SDS011;10933;50.754;11.508;2023-11-19T02:20:18;0.70;;;0.70;;
21543;SDS011;10933;50.754;11.508;2023-11-19T02:22:48;0.50;;;0.50;;
21543;SDS011;10933;50.754;11.508;2023-11-19T02:25:25;0.50;;;0.50;;
21543;SDS011;10933;50.754;11.508;2023-11-19T02:28:01;0.97;;;0.50;;
21543;SDS011;10933;50.754;11.508;2023-11-19T02:30:29;0.50;;;0.50;;
21543;SDS011;10933;50.754;11.508;2023-11-19T02:32:57;0.40;;;0.40;;
21543;SDS011;10933;50.754;11.508;2023-11-19T02:35:30;0.77;;;0.77;;
21543;SDS011;10933;50.754;11.508;2023-11-19T02:37:57;0.60;;;0.60;;
21543;SDS011;10933;50.754;11.508;2023-11-19T02:40:31;0.50;;;0.50;;
21543;SDS011;10933;50.754;11.508;2023-11-19T02:42:57;0.40;;;0.40;;
21543;SDS011;10933;50.754;11.508;2023-11-19T02:45:23;0.50;;;0.50;;
21543;SDS011;10933;50.754;11.508;2023-11-19T02:47:50;0.47;;;0.47;;
21543;SDS011;10933;50.754;11.508;2023-11-19T02:50:18;1.43;;;0.50;;
21543;SDS011;10933;50.754;11.508;2023-11-19T02:52:50;0.50;;;0.50;;
21543;SDS011;10933;50.754;11.508;2023-11-19T02:55:21;1.47;;;0.70;;
21543;SDS011;10933;50.754;11.508;2023-11-19T02:57:48;0.60;;;0.60;;
21543;SDS011;10933;50.754;11.508;2023-11-19T03:00:16;0.73;;;0.70;;
21543;SDS011;10933;50.754;11.508;2023-11-19T03:02:57;0.50;;;0.50;;
21543;SDS011;10933;50.754;11.508;2023-11-19T03:05:30;0.40;;;0.40;;
21543;SDS011;10933;50.754;11.508;2023-11-19T03:07:56;0.57;;;0.50;;
21543;SDS011;10933;50.754;11.508;2023-11-19T03:10:22;0.53;;;0.50;;
21543;SDS011;10933;50.754;11.508;2023-11-19T03:12:49;0.33;;;0.33;;
21543;SDS011;10933;50.754;11.508;2023-11-19T03:15:15;0.43;;;0.43;;
21543;SDS011;10933;50.754;11.508;2023-11-19T03:17:41;0.30;;;0.30;;
21543;SDS011;10933;50.754;11.508;2023-11-19T03:20:08;0.50;;;0.50;;
21543;SDS011;10933;50.754;11.508;2023-11-19T03:22:39;4.37;;;4.10;;
21543;SDS011;10933;50.754;11.508;2023-11-19T03:25:09;3.27;;;3.07;;
21543;SDS011;10933;50.754;11.508;2023-11-19T03:27:38;2.07;;;1.97;;
21543;SDS011;10933;50.754;11.508;2023-11-19T03:30:06;1.17;;;1.17;;
21543;SDS011;10933;50.754;11.508;2023-11-19T03:32:36;0.80;;;0.70;;
21543;SDS011;10933;50.754;11.508;2023-11-19T03:35:04;0.60;;;0.60;;
21543;SDS011;10933;50.754;11.508;2023-11-19T03:37:34;0.40;;;0.40;;
21543;SDS011;10933;50.754;11.508;2023-11-19T03:40:01;0.60;;;0.30;;
21543;SDS011;10933;50.754;11.508;2023-11-19T03:42:27;1.77;;;0.93;;
21543;SDS011;10933;50.754;11.508;2023-11-19T03:44:55;0.40;;;0.40;;
21543;SDS011;10933;50.754;11.508;2023-11-19T03:47:21;3.63;;;0.80;;
21543;SDS011;10933;50.754;11.508;2023-11-19T03:49:48;0.90;;;0.90;;
21543;SDS011;10933;50.754;11.508;2023-11-19T03:52:14;0.80;;;0.80;;
21543;SDS011;10933;50.754;11.508;2023-11-19T03:54:40;0.70;;;0.70;;
21543;SDS011;10933;50.754;11.508;2023-11-19T03:57:06;0.80;;;0.80;;
21543;SDS011;10933;50.754;11.508;2023-11-19T03:59:32;0.63;;;0.63;;
21543;SDS011;10933;50.754;11.508;2023-11-19T04:01:58;0.43;;;0.43;;
21543;SDS011;10933;50.754;11.508;2023-11-19T04:04:28;0.43;;;0.43;;
21543;SDS011;10933;50.754;11.508;2023-11-19T04:06:54;0.50;;;0.50;;
21543;SDS011;10933;50.754;11.508;2023-11-19T04:09:21;0.50;;;0.50;;
21543;SDS011;10933;50.754;11.508;2023-11-19T04:11:47;0.50;;;0.50;;
21543;SDS011;10933;50.754;11.508;2023-11-19T04:14:13;0.50;;;0.40;;
21543;SDS011;10933;50.754;11.508;2023-11-19T04:16:40;0.57;;;0.53;;
21543;SDS011;10933;50.754;11.508;2023-11-19T04:19:06;0.50;;;0.50;;
21543;SDS011;10933;50.754;11.508;2023-11-19T04:21:33;1.27;;;0.50;;
21543;SDS011;10933;50.754;11.508;2023-11-19T04:23:59;0.50;;;0.40;;
21543;SDS011;10933;50.754;11.508;2023-11-19T04:26:25;0.50;;;0.50;;
21543;SDS011;10933;50.754;11.508;2023-11-19T04:28:51;0.73;;;0.40;;
21543;SDS011;10933;50.754;11.508;2023-11-19T04:31:17;0.60;;;0.60;;
21543;SDS011;10933;50.754;11.508;2023-11-19T04:33:43;0.60;;;0.60;;
21543;SDS011;10933;50.754;11.508;2023-11-19T04:36:09;0.60;;;0.60;;
21543;SDS011;10933;50.754;11.508;2023-11-19T04:38:36;0.70;;;0.70;;
21543;SDS011;10933;50.754;11.508;2023-11-19T04:41:04;0.70;;;0.70;;
21543;SDS011;10933;50.754;11.508;2023-11-19T04:43:31;1.87;;;0.87;;
21543;SDS011;10933;50.754;11.508;2023-11-19T04:46:00;1.10;;;1.10;;
21543;SDS011;10933;50.754;11.508;2023-11-19T04:48:29;3.17;;;1.00;;
21543;SDS011;10933;50.754;11.508;2023-11-19T04:50:54;5.27;;;0.97;;
21543;SDS011;10933;50.754;11.508;2023-11-19T04:53:20;0.80;;;0.80;;
21543;SDS011;10933;50.754;11.508;2023-11-19T04:55:46;1.77;;;1.67;;
21543;SDS011;10933;50.754;11.508;2023-11-19T04:58:12;1.77;;;1.67;;
21543;SDS011;10933;50.754;11.508;2023-11-19T05:00:38;1.90;;;1.80;;
21543;SDS011;10933;50.754;11.508;2023-11-19T05:03:04;2.00;;;1.90;;
21543;SDS011;10933;50.754;11.508;2023-11-19T05:05:30;1.63;;;1.53;;
21543;SDS011;10933;50.754;11.508;2023-11-19T05:07:55;1.87;;;1.77;;
21543;SDS011;10933;50.754;11.508;2023-11-19T05:10:22;2.40;;;2.30;;
21543;SDS011;10933;50.754;11.508;2023-11-19T05:12:47;2.47;;;2.37;;
21543;SDS011;10933;50.754;11.508;2023-11-19T05:15:13;2.20;;;2.10;;
21543;SDS011;10933;50.754;11.508;2023-11-19T05:17:39;1.90;;;1.80;;
21543;SDS011;10933;50.754;11.508;2023-11-19T05:20:05;1.80;;;1.70;;
21543;SDS011;10933;50.754;11.508;2023-11-19T05:22:38;2.47;;;2.37;;
21543;SDS011;10933;50.754;11.508;2023-11-19T05:25:06;2.10;;;2.00;;
21543;SDS011;10933;50.754;11.508;2023-11-19T05:27:32;2.13;;;1.73;;
21543;SDS011;10933;50.754;11.508;2023-11-19T05:29:58;2.00;;;1.90;;
21543;SDS011;10933;50.754;11.508;2023-11-19T05:32:23;1.30;;;1.30;;
21543;SDS011;10933;50.754;11.508;2023-11-19T05:34:49;4.27;;;1.00;;
21543;SDS011;10933;50.754;11.508;2023-11-19T05:37:15;1.20;;;1.10;;
21543;SDS011;10933;50.754;11.508;2023-11-19T05:39:41;0.80;;;0.80;;
21543;SDS011;10933;50.754;11.508;2023-11-19T05:42:07;0.80;;;0.80;;
21543;SDS011;10933;50.754;11.508;2023-11-19T05:44:33;0.80;;;0.80;;
21543;SDS011;10933;50.754;11.508;2023-11-19T05:46:58;0.60;;;0.60;;
21543;SDS011;10933;50.754;11.508;2023-11-19T05:49:24;0.63;;;0.60;;
21543;SDS011;10933;50.754;11.508;2023-11-19T05:51:50;0.60;;;0.60;;
21543;SDS011;10933;50.754;11.508;2023-11-19T05:54:16;0.50;;;0.50;;
21543;SDS011;10933;50.754;11.508;2023-11-19T05:56:42;0.60;;;0.60;;
21543;SDS011;10933;50.754;11.508;2023-11-19T05:59:19;0.70;;;0.70;;
21543;SDS011;10933;50.754;11.508;2023-11-19T06:01:45;1.03;;;0.90;;
21543;SDS011;10933;50.754;11.508;2023-11-19T06:04:11;2.10;;;2.00;;
21543;SDS011;10933;50.754;11.508;2023-11-19T06:06:37;2.97;;;2.77;;
21543;SDS011;10933;50.754;11.508;2023-11-19T06:09:04;2.40;;;2.30;;
21543;SDS011;10933;50.754;11.508;2023-11-19T06:11:31;3.37;;;2.77;;
21543;SDS011;10933;50.754;11.508;2023-11-19T06:13:59;2.63;;;2.43;;
21543;SDS011;10933;50.754;11.508;2023-11-19T06:16:25;2.20;;;2.10;;
21543;SDS011;10933;50.754;11.508;2023-11-19T06:18:50;2.03;;;1.90;;
21543;SDS011;10933;50.754;11.508;2023-11-19T06:21:16;2.10;;;2.00;;
21543;SDS011;10933;50.754;11.508;2023-11-19T06:23:42;1.90;;;1.80;;
21543;SDS011;10933;50.754;11.508;2023-11-19T06:26:08;1.97;;;1.87;;
21543;SDS011;10933;50.754;11.508;2023-11-19T06:28:34;2.03;;;1.67;;
21543;SDS011;10933;50.754;11.508;2023-11-19T06:30:59;1.33;;;1.23;;
21543;SDS011;10933;50.754;11.508;2023-11-19T06:33:25;1.13;;;1.13;;
21543;SDS011;10933;50.754;11.508;2023-11-19T06:35:52;1.60;;;1.23;;
21543;SDS011;10933;50.754;11.508;2023-11-19T06:38:19;1.37;;;1.00;;
21543;SDS011;10933;50.754;11.508;2023-11-19T06:40:45;1.50;;;0.90;;
21543;SDS011;10933;50.754;11.508;2023-11-19T06:43:11;5.77;;;1.23;;
21543;SDS011;10933;50.754;11.508;2023-11-19T06:45:37;0.90;;;0.90;;
21543;SDS011;10933;50.754;11.508;2023-11-19T06:48:03;0.80;;;0.80;;
21543;SDS011;10933;50.754;11.508;2023-11-19T06:50:30;0.90;;;0.90;;
21543;SDS011;10933;50.754;11.508;2023-11-19T06:52:56;1.10;;;1.00;;
21543;SDS011;10933;50.754;11.508;2023-11-19T06:55:22;1.50;;;1.40;;
21543;SDS011;10933;50.754;11.508;2023-11-19T06:57:48;1.50;;;1.40;;
21543;SDS011;10933;50.754;11.508;2023-11-19T07:00:14;1.87;;;1.60;;
21543;SDS011;10933;50.754;11.508;2023-11-19T07:02:40;1.97;;;1.20;;
21543;SDS011;10933;50.754;11.508;2023-11-19T07:05:06;5.27;;;4.87;;
21543;SDS011;10933;50.754;11.508;2023-11-19T07:07:33;11.10;;;10.40;;
21543;SDS011;10933;50.754;11.508;2023-11-19T07:10:00;2.03;;;1.93;;
21543;SDS011;10933;50.754;11.508;2023-11-19T07:12:27;3.10;;;2.77;;
21543;SDS011;10933;50.754;11.508;2023-11-19T07:14:53;5.13;;;4.73;;
21543;SDS011;10933;50.754;11.508;2023-11-19T07:17:20;8.33;;;7.83;;
21543;SDS011;10933;50.754;11.508;2023-11-19T07:19:46;9.00;;;8.50;;
21543;SDS011;10933;50.754;11.508;2023-11-19T07:22:15;6.23;;;5.73;;
21543;SDS011;10933;50.754;11.508;2023-11-19T07:24:41;5.83;;;5.53;;
21543;SDS011;10933;50.754;11.508;2023-11-19T07:27:08;4.73;;;4.17;;
21543;SDS011;10933;50.754;11.508;2023-11-19T07:29:34;3.27;;;3.07;;
21543;SDS011;10933;50.754;11.508;2023-11-19T07:32:01;2.37;;;2.27;;
21543;SDS011;10933;50.754;11.508;2023-11-19T07:34:30;3.00;;;1.70;;
21543;SDS011;10933;50.754;11.508;2023-11-19T07:36:56;9.30;;;2.27;;
21543;SDS011;10933;50.754;11.508;2023-11-19T07:39:27;4.07;;;3.77;;
21543;SDS011;10933;50.754;11.508;2023-11-19T07:41:56;7.07;;;4.30;;
21543;SDS011;10933;50.754;11.508;2023-11-19T07:44:22;4.40;;;4.10;;
21543;SDS011;10933;50.754;11.508;2023-11-19T07:46:47;4.50;;;4.20;;
21543;SDS011;10933;50.754;11.508;2023-11-19T07:49:13;6.47;;;6.07;;
21543;SDS011;10933;50.754;11.508;2023-11-19T07:51:39;6.70;;;6.20;;
21543;SDS011;10933;50.754;11.508;2023-11-19T07:54:06;6.87;;;6.47;;
21543;SDS011;10933;50.754;11.508;2023-11-19T07:56:33;15.37;;;14.37;;
21543;SDS011;10933;50.754;11.508;2023-11-19T07:59:02;3.90;;;3.60;;
21543;SDS011;10933;50.754;11.508;2023-11-19T08:01:28;4.50;;;4.20;;
21543;SDS011;10933;50.754;11.508;2023-11-19T08:03:54;5.23;;;4.93;;
21543;SDS011;10933;50.754;11.508;2023-11-19T08:06:20;5.47;;;4.97;;
21543;SDS011;10933;50.754;11.508;2023-11-19T08:08:46;6.47;;;5.87;;
21543;SDS011;10933;50.754;11.508;2023-11-19T08:11:13;8.13;;;7.63;;
21543;SDS011;10933;50.754;11.508;2023-11-19T08:13:40;137.07;;;77.27;;
21543;SDS011;10933;50.754;11.508;2023-11-19T08:16:07;174.60;;;96.80;;
21543;SDS011;10933;50.754;11.508;2023-11-19T08:18:32;136.03;;;82.00;;
21543;SDS011;10933;50.754;11.508;2023-11-19T08:20:58;57.63;;;45.47;;
21543;SDS011;10933;50.754;11.508;2023-11-19T08:23:25;19.40;;;18.30;;
21543;SDS011;10933;50.754;11.508;2023-11-19T08:25:53;16.47;;;15.47;;
21543;SDS011;10933;50.754;11.508;2023-11-19T08:28:19;10.17;;;9.33;;
21543;SDS011;10933;50.754;11.508;2023-11-19T08:30:45;9.10;;;8.37;;
21543;SDS011;10933;50.754;11.508;2023-11-19T08:33:11;18.70;;;17.03;;
21543;SDS011;10933;50.754;11.508;2023-11-19T08:35:37;11.93;;;11.23;;
21543;SDS011;10933;50.754;11.508;2023-11-19T08:38:03;6.90;;;6.20;;
21543;SDS011;10933;50.754;11.508;2023-11-19T08:40:28;7.97;;;7.27;;
21543;SDS011;10933;50.754;11.508;2023-11-19T08:42:55;6.13;;;5.73;;
21543;SDS011;10933;50.754;11.508;2023-11-19T08:45:21;6.00;;;5.70;;
21543;SDS011;10933;50.754;11.508;2023-11-19T08:47:47;4.50;;;4.20;;
21543;SDS011;10933;50.754;11.508;2023-11-19T08:50:13;7.47;;;6.97;;
21543;SDS011;10933;50.754;11.508;2023-11-19T08:52:39;9.23;;;8.53;;
21543;SDS011;10933;50.754;11.508;2023-11-19T08:55:05;7.37;;;6.90;;
21543;SDS011;10933;50.754;11.508;2023-11-19T08:57:31;8.47;;;7.97;;
21543;SDS011;10933;50.754;11.508;2023-11-19T09:00:00;4.10;;;3.90;;
21543;SDS011;10933;50.754;11.508;2023-11-19T09:02:26;11.73;;;10.60;;
21543;SDS011;10933;50.754;11.508;2023-11-19T09:04:52;4.13;;;3.47;;
21543;SDS011;10933;50.754;11.508;2023-11-19T09:07:17;8.20;;;7.80;;
21543;SDS011;10933;50.754;11.508;2023-11-19T09:09:43;5.70;;;5.35;;
21543;SDS011;10933;50.754;11.508;2023-11-19T09:12:09;3.85;;;3.65;;
21543;SDS011;10933;50.754;11.508;2023-11-19T09:14:35;1.70;;;1.60;;
21543;SDS011;10933;50.754;11.508;2023-11-19T09:17:00;1.40;;;1.30;;
21543;SDS011;10933;50.754;11.508;2023-11-19T09:19:26;1.58;;;1.48;;
21543;SDS011;10933;50.754;11.508;2023-11-19T09:21:53;1.20;;;1.10;;
21543;SDS011;10933;50.754;11.508;2023-11-19T09:24:18;2.20;;;2.10;;
21543;SDS011;10933;50.754;11.508;2023-11-19T09:26:44;2.85;;;2.65;;
21543;SDS011;10933;50.754;11.508;2023-11-19T09:29:10;1.33;;;1.13;;
21543;SDS011;10933;50.754;11.508;2023-11-19T09:31:39;1.45;;;1.08;;
21543;SDS011;10933;50.754;11.508;2023-11-19T09:34:06;3.05;;;2.80;;
21543;SDS011;10933;50.754;11.508;2023-11-19T09:36:31;1.42;;;1.08;;
21543;SDS011;10933;50.754;11.508;2023-11-19T09:38:57;2.60;;;2.40;;
21543;SDS011;10933;50.754;11.508;2023-11-19T09:41:25;7.53;;;7.07;;
21543;SDS011;10933;50.754;11.508;2023-11-19T09:43:52;3.40;;;3.10;;
21543;SDS011;10933;50.754;11.508;2023-11-19T09:46:19;4.25;;;3.00;;
21543;SDS011;10933;50.754;11.508;2023-11-19T09:48:45;5.65;;;2.75;;
21543;SDS011;10933;50.754;11.508;2023-11-19T09:51:13;3.92;;;2.25;;
21543;SDS011;10933;50.754;11.508;2023-11-19T09:53:40;2.80;;;1.73;;
21543;SDS011;10933;50.754;11.508;2023-11-19T09:56:06;4.50;;;1.80;;
21543;SDS011;10933;50.754;11.508;2023-11-19T09:58:33;3.03;;;1.70;;
21543;SDS011;10933;50.754;11.508;2023-11-19T10:01:00;2.78;;;2.00;;
21543;SDS011;10933;50.754;11.508;2023-11-19T10:03:32;4.57;;;2.15;;
21543;SDS011;10933;50.754;11.508;2023-11-19T10:06:04;4.13;;;2.22;;
21543;SDS011;10933;50.754;11.508;2023-11-19T10:08:33;5.32;;;2.53;;
21543;SDS011;10933;50.754;11.508;2023-11-19T10:11:02;5.70;;;3.30;;
21543;SDS011;10933;50.754;11.508;2023-11-19T10:13:28;7.70;;;3.78;;
21543;SDS011;10933;50.754;11.508;2023-11-19T10:15:55;5.40;;;2.33;;
21543;SDS011;10933;50.754;11.508;2023-11-19T10:18:27;13.20;;;3.28;;
21543;SDS011;10933;50.754;11.508;2023-11-19T10:20:54;6.45;;;4.13;;
21543;SDS011;10933;50.754;11.508;2023-11-19T10:23:21;7.05;;;3.15;;
21543;SDS011;10933;50.754;11.508;2023-11-19T10:25:47;7.85;;;3.55;;
21543;SDS011;10933;50.754;11.508;2023-11-19T10:28:15;7.25;;;2.88;;
21543;SDS011;10933;50.754;11.508;2023-11-19T10:30:43;6.53;;;2.20;;
21543;SDS011;10933;50.754;11.508;2023-11-19T10:33:13;7.03;;;3.72;;
21543;SDS011;10933;50.754;11.508;2023-11-19T10:35:52;4.90;;;2.47;;
21543;SDS011;10933;50.754;11.508;2023-11-19T10:38:21;4.65;;;2.53;;
21543;SDS011;10933;50.754;11.508;2023-11-19T10:40:48;3.83;;;2.35;;
21543;SDS011;10933;50.754;11.508;2023-11-19T10:43:15;7.03;;;2.90;;
21543;SDS011;10933;50.754;11.508;2023-11-19T10:45:42;4.15;;;2.95;;
21543;SDS011;10933;50.754;11.508;2023-11-19T10:48:09;3.35;;;2.78;;
21543;SDS011;10933;50.754;11.508;2023-11-19T10:50:37;3.13;;;2.08;;
21543;SDS011;10933;50.754;11.508;2023-11-19T10:53:05;2.70;;;2.10;;
21543;SDS011;10933;50.754;11.508;2023-11-19T10:55:34;2.83;;;1.55;;
21543;SDS011;10933;50.754;11.508;2023-11-19T10:58:04;4.47;;;1.48;;
21543;SDS011;10933;50.754;11.508;2023-11-19T11:00:45;3.90;;;1.20;;
21543;SDS011;10933;50.754;11.508;2023-11-19T11:03:20;7.15;;;1.80;;
21543;SDS011;10933;50.754;11.508;2023-11-19T11:05:50;2.72;;;1.00;;
21543;SDS011;10933;50.754;11.508;2023-11-19T11:08:17;2.10;;;0.80;;
21543;SDS011;10933;50.754;11.508;2023-11-19T11:10:54;3.85;;;1.88;;
21543;SDS011;10933;50.754;11.508;2023-11-19T11:13:22;3.53;;;1.50;;
21543;SDS011;10933;50.754;11.508;2023-11-19T11:15:50;2.65;;;1.27;;
21543;SDS011;10933;50.754;11.508;2023-11-19T11:18:16;4.15;;;1.60;;
21543;SDS011;10933;50.754;11.508;2023-11-19T11:20:46;2.63;;;1.27;;
21543;SDS011;10933;50.754;11.508;2023-11-19T11:26:32;2.25;;;1.10;;
21543;SDS011;10933;50.754;11.508;2023-11-19T11:39:57;4.53;;;2.58;;
21543;SDS011;10933;50.754;11.508;2023-11-19T11:50:08;2.83;;;1.83;;
21543;SDS011;10933;50.754;11.508;2023-11-19T11:53:41;4.43;;;2.15;;
21543;SDS011;10933;50.754;11.508;2023-11-19T11:58:19;3.50;;;1.90;;
21543;SDS011;10933;50.754;11.508;2023-11-19T12:00:47;8.48;;;2.08;;
21543;SDS011;10933;50.754;11.508;2023-11-19T12:03:18;3.78;;;1.80;;
21543;SDS011;10933;50.754;11.508;2023-11-19T12:05:47;3.93;;;1.57;;
21543;SDS011;10933;50.754;11.508;2023-11-19T12:08:14;4.20;;;1.90;;
21543;SDS011;10933;50.754;11.508;2023-11-19T12:13:13;4.00;;;1.75;;
21543;SDS011;10933;50.754;11.508;2023-11-19T12:18:31;4.60;;;1.40;;
21543;SDS011;10933;50.754;11.508;2023-11-19T12:20:58;3.40;;;1.35;;
21543;SDS011;10933;50.754;11.508;2023-11-19T12:23:31;2.53;;;1.70;;
21543;SDS011;10933;50.754;11.508;2023-11-19T12:25:59;3.38;;;1.35;;
21543;SDS011;10933;50.754;11.508;2023-11-19T12:28:25;8.35;;;1.10;;
21543;SDS011;10933;50.754;11.508;2023-11-19T12:30:52;2.67;;;1.15;;
21543;SDS011;10933;50.754;11.508;2023-11-19T12:33:19;6.15;;;1.77;;
21543;SDS011;10933;50.754;11.508;2023-11-19T12:35:46;3.65;;;1.10;;
21543;SDS011;10933;50.754;11.508;2023-11-19T12:38:22;5.18;;;1.65;;
21543;SDS011;10933;50.754;11.508;2023-11-19T12:41:05;2.33;;;1.40;;
21543;SDS011;10933;50.754;11.508;2023-11-19T12:43:32;3.28;;;1.67;;
21543;SDS011;10933;50.754;11.508;2023-11-19T12:46:02;3.00;;;2.30;;
21543;SDS011;10933;50.754;11.508;2023-11-19T12:48:42;6.70;;;5.88;;
21543;SDS011;10933;50.754;11.508;2023-11-19T12:51:08;6.72;;;4.88;;
21543;SDS011;10933;50.754;11.508;2023-11-19T12:53:46;5.22;;;3.10;;
21543;SDS011;10933;50.754;11.508;2023-11-19T12:56:19;5.40;;;3.38;;
21543;SDS011;10933;50.754;11.508;2023-11-19T12:58:46;6.40;;;2.33;;
21543;SDS011;10933;50.754;11.508;2023-11-19T13:01:15;3.53;;;1.77;;
21543;SDS011;10933;50.754;11.508;2023-11-19T13:03:44;3.78;;;1.80;;
21543;SDS011;10933;50.754;11.508;2023-11-19T13:06:11;6.53;;;2.40;;
21543;SDS011;10933;50.754;11.508;2023-11-19T13:08:41;5.82;;;2.38;;
21543;SDS011;10933;50.754;11.508;2023-11-19T13:11:12;3.47;;;1.40;;
21543;SDS011;10933;50.754;11.508;2023-11-19T13:13:57;10.57;;;5.35;;
21543;SDS011;10933;50.754;11.508;2023-11-19T13:16:30;7.68;;;5.72;;
21543;SDS011;10933;50.754;11.508;2023-11-19T13:18:57;4.05;;;3.22;;
21543;SDS011;10933;50.754;11.508;2023-11-19T13:21:25;5.57;;;1.90;;
21543;SDS011;10933;50.754;11.508;2023-11-19T13:23:51;7.13;;;2.30;;
21543;SDS011;10933;50.754;11.508;2023-11-19T13:26:17;3.20;;;1.70;;
21543;SDS011;10933;50.754;11.508;2023-11-19T13:28:43;4.13;;;1.77;;
21543;SDS011;10933;50.754;11.508;2023-11-19T13:31:09;4.47;;;1.50;;
21543;SDS011;10933;50.754;11.508;2023-11-19T13:33:36;3.75;;;1.85;;
21543;SDS011;10933;50.754;11.508;2023-11-19T13:36:02;4.13;;;3.22;;
21543;SDS011;10933;50.754;11.508;2023-11-19T13:38:34;3.78;;;1.70;;
21543;SDS011;10933;50.754;11.508;2023-11-19T13:41:01;3.67;;;1.73;;
21543;SDS011;10933;50.754;11.508;2023-11-19T13:43:29;5.07;;;3.05;;
21543;SDS011;10933;50.754;11.508;2023-11-19T13:45:55;4.65;;;3.58;;
21543;SDS011;10933;50.754;11.508;2023-11-19T13:48:23;4.45;;;2.42;;
21543;SDS011;10933;50.754;11.508;2023-11-19T13:50:50;5.18;;;2.15;;
21543;SDS011;10933;50.754;11.508;2023-11-19T13:53:16;3.95;;;2.30;;
21543;SDS011;10933;50.754;11.508;2023-11-19T13:55:42;4.93;;;3.67;;
21543;SDS011;10933;50.754;11.508;2023-11-19T13:58:09;6.05;;;2.70;;
21543;SDS011;10933;50.754;11.508;2023-11-19T14:00:36;5.85;;;1.80;;
21543;SDS011;10933;50.754;11.508;2023-11-19T14:03:02;4.65;;;2.78;;
21543;SDS011;10933;50.754;11.508;2023-11-19T14:05:29;4.88;;;2.25;;
21543;SDS011;10933;50.754;11.508;2023-11-19T14:07:56;6.13;;;2.80;;
21543;SDS011;10933;50.754;11.508;2023-11-19T14:10:22;6.32;;;3.10;;
21543;SDS011;10933;50.754;11.508;2023-11-19T14:12:49;4.40;;;2.90;;
21543;SDS011;10933;50.754;11.508;2023-11-19T14:15:15;5.68;;;2.50;;
21543;SDS011;10933;50.754;11.508;2023-11-19T14:17:42;6.88;;;2.25;;
21543;SDS011;10933;50.754;11.508;2023-11-19T14:20:09;4.00;;;2.35;;
21543;SDS011;10933;50.754;11.508;2023-11-19T14:22:41;8.85;;;3.08;;
21543;SDS011;10933;50.754;11.508;2023-11-19T14:25:09;5.50;;;4.93;;
21543;SDS011;10933;50.754;11.508;2023-11-19T14:27:40;5.43;;;3.70;;
21543;SDS011;10933;50.754;11.508;2023-11-19T14:30:07;5.28;;;3.72;;
21543;SDS011;10933;50.754;11.508;2023-11-19T14:32:36;7.78;;;4.63;;
21543;SDS011;10933;50.754;11.508;2023-11-19T14:35:03;7.93;;;7.13;;
21543;SDS011;10933;50.754;11.508;2023-11-19T14:37:30;5.05;;;2.95;;
21543;SDS011;10933;50.754;11.508;2023-11-19T14:39:56;5.45;;;3.15;;
21543;SDS011;10933;50.754;11.508;2023-11-19T14:42:23;15.00;;;11.55;;
21543;SDS011;10933;50.754;11.508;2023-11-19T14:44:53;16.77;;;12.48;;
21543;SDS011;10933;50.754;11.508;2023-11-19T14:47:20;10.38;;;8.48;;
21543;SDS011;10933;50.754;11.508;2023-11-19T14:49:46;9.48;;;7.13;;
21543;SDS011;10933;50.754;11.508;2023-11-19T14:52:13;7.45;;;6.75;;
21543;SDS011;10933;50.754;11.508;2023-11-19T14:54:39;7.60;;;4.72;;
21543;SDS011;10933;50.754;11.508;2023-11-19T14:57:06;4.97;;;3.50;;
21543;SDS011;10933;50.754;11.508;2023-11-19T14:59:36;10.13;;;7.05;;
21543;SDS011;10933;50.754;11.508;2023-11-19T15:02:02;10.75;;;3.67;;
21543;SDS011;10933;50.754;11.508;2023-11-19T15:04:30;10.55;;;5.88;;